sensor_id;sensor_type;location;lat;lon;timestamp;P1;durP1;ratioP1;P2;durP2;ratioP2
59008;SDS011;44794;42.652;23.318;2022-10-16T00:00:56;31.80;;;18.42;;
59008;SDS011;44794;42.652;23.318;2022-10-16T00:03:22;39.85;;;19.02;;
59008;SDS011;44794;42.652;23.318;2022-10-16T00:05:47;33.28;;;18.33;;
59008;SDS011;44794;42.652;23.318;2022-10-16T00:08:13;34.88;;;19.42;;
59008;SDS011;44794;42.652;23.318;2022-10-16T00:10:38;39.05;;;21.58;;
59008;SDS011;44794;42.652;23.318;2022-10-16T00:13:04;43.88;;;21.25;;
59008;SDS011;44794;42.652;23.318;2022-10-16T00:15:32;35.60;;;21.63;;
59008;SDS011;44794;42.652;23.318;2022-10-16T00:18:01;38.45;;;21.75;;
59008;SDS011;44794;42.652;23.318;2022-10-16T00:20:27;39.40;;;21.58;;
59008;SDS011;44794;42.652;23.318;2022-10-16T00:22:52;41.13;;;22.80;;
59008;SDS011;44794;42.652;23.318;2022-10-16T00:25:18;44.58;;;22.73;;
59008;SDS011;44794;42.652;23.318;2022-10-16T00:27:43;45.78;;;24.45;;
59008;SDS011;44794;42.652;23.318;2022-10-16T00:30:09;54.70;;;25.83;;
59008;SDS011;44794;42.652;23.318;2022-10-16T00:32:35;48.00;;;23.80;;
59008;SDS011;44794;42.652;23.318;2022-10-16T00:35:00;47.35;;;23.65;;
59008;SDS011;44794;42.652;23.318;2022-10-16T00:37:26;35.72;;;21.55;;
59008;SDS011;44794;42.652;23.318;2022-10-16T00:39:51;37.92;;;20.27;;
59008;SDS011;44794;42.652;23.318;2022-10-16T00:42:17;32.97;;;19.60;;
59008;SDS011;44794;42.652;23.318;2022-10-16T00:44:50;35.85;;;19.15;;
59008;SDS011;44794;42.652;23.318;2022-10-16T00:50:12;30.70;;;18.55;;
59008;SDS011;44794;42.652;23.318;2022-10-16T00:52:46;32.80;;;19.15;;
59008;SDS011;44794;42.652;23.318;2022-10-16T00:55:13;35.88;;;20.05;;
59008;SDS011;44794;42.652;23.318;2022-10-16T00:57:39;36.83;;;20.33;;
59008;SDS011;44794;42.652;23.318;2022-10-16T01:00:06;37.60;;;19.98;;
59008;SDS011;44794;42.652;23.318;2022-10-16T01:02:34;32.35;;;18.63;;
59008;SDS011;44794;42.652;23.318;2022-10-16T01:04:59;40.05;;;19.42;;
59008;SDS011;44794;42.652;23.318;2022-10-16T01:07:45;35.38;;;19.25;;
59008;SDS011;44794;42.652;23.318;2022-10-16T01:10:34;33.75;;;19.55;;
59008;SDS011;44794;42.652;23.318;2022-10-16T01:13:09;35.33;;;18.80;;
59008;SDS011;44794;42.652;23.318;2022-10-16T01:15:46;36.78;;;20.60;;
59008;SDS011;44794;42.652;23.318;2022-10-16T01:18:17;36.13;;;19.23;;
59008;SDS011;44794;42.652;23.318;2022-10-16T01:21:07;32.25;;;17.13;;
59008;SDS011;44794;42.652;23.318;2022-10-16T01:23:45;29.08;;;17.13;;
59008;SDS011;44794;42.652;23.318;2022-10-16T01:29:12;30.90;;;17.02;;
59008;SDS011;44794;42.652;23.318;2022-10-16T01:31:44;32.80;;;18.48;;
59008;SDS011;44794;42.652;23.318;2022-10-16T01:34:17;29.23;;;16.80;;
59008;SDS011;44794;42.652;23.318;2022-10-16T01:37:05;30.05;;;16.88;;
59008;SDS011;44794;42.652;23.318;2022-10-16T01:39:35;34.72;;;17.92;;
59008;SDS011;44794;42.652;23.318;2022-10-16T01:42:06;34.30;;;18.45;;
59008;SDS011;44794;42.652;23.318;2022-10-16T01:44:36;32.38;;;17.83;;
59008;SDS011;44794;42.652;23.318;2022-10-16T01:47:04;36.63;;;17.95;;
59008;SDS011;44794;42.652;23.318;2022-10-16T01:49:33;35.92;;;17.85;;
59008;SDS011;44794;42.652;23.318;2022-10-16T01:52:02;41.08;;;19.75;;
59008;SDS011;44794;42.652;23.318;2022-10-16T01:54:33;36.92;;;18.77;;
59008;SDS011;44794;42.652;23.318;2022-10-16T01:57:01;36.13;;;18.90;;
59008;SDS011;44794;42.652;23.318;2022-10-16T01:59:31;39.80;;;20.65;;
59008;SDS011;44794;42.652;23.318;2022-10-16T02:02:01;50.30;;;22.77;;
59008;SDS011;44794;42.652;23.318;2022-10-16T02:04:36;44.42;;;21.88;;
59008;SDS011;44794;42.652;23.318;2022-10-16T02:07:04;51.67;;;23.00;;
59008;SDS011;44794;42.652;23.318;2022-10-16T02:09:32;47.83;;;24.02;;
59008;SDS011;44794;42.652;23.318;2022-10-16T02:11:58;56.42;;;27.33;;
59008;SDS011;44794;42.652;23.318;2022-10-16T02:14:28;60.45;;;29.42;;
59008;SDS011;44794;42.652;23.318;2022-10-16T02:16:54;57.25;;;27.58;;
59008;SDS011;44794;42.652;23.318;2022-10-16T02:19:20;51.40;;;26.45;;
59008;SDS011;44794;42.652;23.318;2022-10-16T02:29:47;38.90;;;19.95;;
59008;SDS011;44794;42.652;23.318;2022-10-16T02:32:22;33.08;;;18.70;;
59008;SDS011;44794;42.652;23.318;2022-10-16T02:34:49;32.03;;;18.73;;
59008;SDS011;44794;42.652;23.318;2022-10-16T02:37:16;39.85;;;20.30;;
59008;SDS011;44794;42.652;23.318;2022-10-16T02:39:43;36.47;;;19.90;;
59008;SDS011;44794;42.652;23.318;2022-10-16T02:42:10;39.08;;;21.33;;
59008;SDS011;44794;42.652;23.318;2022-10-16T02:44:37;48.22;;;22.58;;
59008;SDS011;44794;42.652;23.318;2022-10-16T02:47:03;43.72;;;21.48;;
59008;SDS011;44794;42.652;23.318;2022-10-16T02:49:29;39.95;;;20.45;;
59008;SDS011;44794;42.652;23.318;2022-10-16T02:51:54;36.55;;;20.17;;
59008;SDS011;44794;42.652;23.318;2022-10-16T02:54:19;39.35;;;21.38;;
59008;SDS011;44794;42.652;23.318;2022-10-16T02:56:45;50.78;;;21.20;;
59008;SDS011;44794;42.652;23.318;2022-10-16T02:59:10;39.53;;;21.00;;
59008;SDS011;44794;42.652;23.318;2022-10-16T03:01:36;44.33;;;23.95;;
59008;SDS011;44794;42.652;23.318;2022-10-16T03:04:01;48.08;;;24.63;;
59008;SDS011;44794;42.652;23.318;2022-10-16T03:06:27;51.35;;;24.40;;
59008;SDS011;44794;42.652;23.318;2022-10-16T03:08:52;46.13;;;24.67;;
59008;SDS011;44794;42.652;23.318;2022-10-16T03:11:18;51.28;;;24.50;;
59008;SDS011;44794;42.652;23.318;2022-10-16T03:13:43;39.70;;;22.30;;
59008;SDS011;44794;42.652;23.318;2022-10-16T03:16:09;47.85;;;25.48;;
59008;SDS011;44794;42.652;23.318;2022-10-16T03:18:34;40.97;;;22.88;;
59008;SDS011;44794;42.652;23.318;2022-10-16T03:20:59;37.75;;;21.55;;
59008;SDS011;44794;42.652;23.318;2022-10-16T03:23:25;40.42;;;22.00;;
59008;SDS011;44794;42.652;23.318;2022-10-16T03:25:50;42.50;;;20.92;;
59008;SDS011;44794;42.652;23.318;2022-10-16T03:28:16;30.88;;;18.85;;
59008;SDS011;44794;42.652;23.318;2022-10-16T03:30:42;32.00;;;19.30;;
59008;SDS011;44794;42.652;23.318;2022-10-16T03:33:08;34.47;;;18.98;;
59008;SDS011;44794;42.652;23.318;2022-10-16T03:35:33;37.20;;;19.88;;
59008;SDS011;44794;42.652;23.318;2022-10-16T03:37:59;40.60;;;20.75;;
59008;SDS011;44794;42.652;23.318;2022-10-16T03:40:24;44.08;;;23.55;;
59008;SDS011;44794;42.652;23.318;2022-10-16T03:42:50;43.97;;;23.73;;
59008;SDS011;44794;42.652;23.318;2022-10-16T03:45:16;43.00;;;22.30;;
59008;SDS011;44794;42.652;23.318;2022-10-16T03:47:42;43.95;;;22.85;;
59008;SDS011;44794;42.652;23.318;2022-10-16T03:50:07;44.03;;;21.58;;
59008;SDS011;44794;42.652;23.318;2022-10-16T03:52:33;42.58;;;21.73;;
59008;SDS011;44794;42.652;23.318;2022-10-16T03:54:59;41.17;;;21.55;;
59008;SDS011;44794;42.652;23.318;2022-10-16T03:57:24;41.70;;;21.50;;
59008;SDS011;44794;42.652;23.318;2022-10-16T03:59:50;41.10;;;21.88;;
59008;SDS011;44794;42.652;23.318;2022-10-16T04:02:15;42.17;;;21.38;;
59008;SDS011;44794;42.652;23.318;2022-10-16T04:04:41;41.53;;;21.27;;
59008;SDS011;44794;42.652;23.318;2022-10-16T04:07:07;39.97;;;20.00;;
59008;SDS011;44794;42.652;23.318;2022-10-16T04:09:33;45.08;;;21.98;;
59008;SDS011;44794;42.652;23.318;2022-10-16T04:11:58;42.53;;;21.70;;
59008;SDS011;44794;42.652;23.318;2022-10-16T04:14:23;43.67;;;22.25;;
59008;SDS011;44794;42.652;23.318;2022-10-16T04:16:49;43.60;;;22.70;;
59008;SDS011;44794;42.652;23.318;2022-10-16T04:19:14;40.15;;;21.35;;
59008;SDS011;44794;42.652;23.318;2022-10-16T04:21:40;45.95;;;24.45;;
59008;SDS011;44794;42.652;23.318;2022-10-16T04:24:05;53.97;;;26.23;;
59008;SDS011;44794;42.652;23.318;2022-10-16T04:26:31;46.15;;;24.55;;
59008;SDS011;44794;42.652;23.318;2022-10-16T04:28:56;45.40;;;22.70;;
59008;SDS011;44794;42.652;23.318;2022-10-16T04:31:22;40.67;;;21.90;;
59008;SDS011;44794;42.652;23.318;2022-10-16T04:33:47;46.80;;;23.38;;
59008;SDS011;44794;42.652;23.318;2022-10-16T04:36:13;53.17;;;25.25;;
59008;SDS011;44794;42.652;23.318;2022-10-16T04:38:38;50.58;;;24.77;;
59008;SDS011;44794;42.652;23.318;2022-10-16T04:41:05;45.30;;;23.40;;
59008;SDS011;44794;42.652;23.318;2022-10-16T04:43:32;54.50;;;24.40;;
59008;SDS011;44794;42.652;23.318;2022-10-16T04:45:58;42.38;;;21.50;;
59008;SDS011;44794;42.652;23.318;2022-10-16T04:48:23;35.95;;;19.23;;
59008;SDS011;44794;42.652;23.318;2022-10-16T04:50:49;39.85;;;21.33;;
59008;SDS011;44794;42.652;23.318;2022-10-16T04:53:15;50.50;;;23.88;;
59008;SDS011;44794;42.652;23.318;2022-10-16T04:55:41;45.13;;;22.90;;
59008;SDS011;44794;42.652;23.318;2022-10-16T04:58:07;43.58;;;22.15;;
59008;SDS011;44794;42.652;23.318;2022-10-16T05:00:33;43.03;;;23.63;;
59008;SDS011;44794;42.652;23.318;2022-10-16T05:02:59;52.40;;;23.52;;
59008;SDS011;44794;42.652;23.318;2022-10-16T05:05:25;52.75;;;25.52;;
59008;SDS011;44794;42.652;23.318;2022-10-16T05:07:51;50.17;;;24.67;;
59008;SDS011;44794;42.652;23.318;2022-10-16T05:10:17;49.13;;;23.98;;
59008;SDS011;44794;42.652;23.318;2022-10-16T05:12:42;51.35;;;23.88;;
59008;SDS011;44794;42.652;23.318;2022-10-16T05:15:08;53.05;;;24.73;;
59008;SDS011;44794;42.652;23.318;2022-10-16T05:17:34;46.80;;;24.70;;
59008;SDS011;44794;42.652;23.318;2022-10-16T05:19:59;47.33;;;25.77;;
59008;SDS011;44794;42.652;23.318;2022-10-16T05:22:25;52.83;;;27.17;;
59008;SDS011;44794;42.652;23.318;2022-10-16T05:24:50;53.90;;;27.52;;
59008;SDS011;44794;42.652;23.318;2022-10-16T05:27:16;54.30;;;27.95;;
59008;SDS011;44794;42.652;23.318;2022-10-16T05:29:47;50.30;;;23.85;;
59008;SDS011;44794;42.652;23.318;2022-10-16T05:32:14;37.47;;;19.88;;
59008;SDS011;44794;42.652;23.318;2022-10-16T05:34:40;32.03;;;17.27;;
59008;SDS011;44794;42.652;23.318;2022-10-16T05:37:06;22.90;;;14.23;;
59008;SDS011;44794;42.652;23.318;2022-10-16T05:39:31;22.55;;;13.55;;
59008;SDS011;44794;42.652;23.318;2022-10-16T05:41:57;19.45;;;12.90;;
59008;SDS011;44794;42.652;23.318;2022-10-16T05:44:23;21.15;;;13.65;;
59008;SDS011;44794;42.652;23.318;2022-10-16T05:46:48;19.33;;;14.35;;
59008;SDS011;44794;42.652;23.318;2022-10-16T05:49:14;23.60;;;15.27;;
59008;SDS011;44794;42.652;23.318;2022-10-16T05:51:39;24.38;;;16.00;;
59008;SDS011;44794;42.652;23.318;2022-10-16T05:54:05;23.90;;;15.85;;
59008;SDS011;44794;42.652;23.318;2022-10-16T05:56:30;22.40;;;15.70;;
59008;SDS011;44794;42.652;23.318;2022-10-16T05:58:56;26.00;;;15.55;;
59008;SDS011;44794;42.652;23.318;2022-10-16T06:01:21;24.33;;;15.27;;
59008;SDS011;44794;42.652;23.318;2022-10-16T06:03:49;26.05;;;15.02;;
59008;SDS011;44794;42.652;23.318;2022-10-16T06:06:19;22.50;;;15.43;;
59008;SDS011;44794;42.652;23.318;2022-10-16T06:08:47;21.27;;;15.27;;
59008;SDS011;44794;42.652;23.318;2022-10-16T06:11:15;23.35;;;16.13;;
59008;SDS011;44794;42.652;23.318;2022-10-16T06:13:44;27.67;;;18.02;;
59008;SDS011;44794;42.652;23.318;2022-10-16T06:16:11;28.60;;;17.42;;
59008;SDS011;44794;42.652;23.318;2022-10-16T06:18:37;29.15;;;18.42;;
59008;SDS011;44794;42.652;23.318;2022-10-16T06:21:10;24.85;;;17.75;;
59008;SDS011;44794;42.652;23.318;2022-10-16T06:23:46;26.67;;;17.65;;
59008;SDS011;44794;42.652;23.318;2022-10-16T06:26:13;28.95;;;17.80;;
59008;SDS011;44794;42.652;23.318;2022-10-16T06:28:40;26.50;;;16.83;;
59008;SDS011;44794;42.652;23.318;2022-10-16T06:31:06;26.02;;;16.48;;
59008;SDS011;44794;42.652;23.318;2022-10-16T06:33:34;22.63;;;16.30;;
59008;SDS011;44794;42.652;23.318;2022-10-16T06:36:04;23.60;;;15.85;;
59008;SDS011;44794;42.652;23.318;2022-10-16T06:38:35;24.73;;;15.90;;
59008;SDS011;44794;42.652;23.318;2022-10-16T06:41:01;26.70;;;15.90;;
59008;SDS011;44794;42.652;23.318;2022-10-16T06:43:28;23.25;;;15.82;;
59008;SDS011;44794;42.652;23.318;2022-10-16T06:45:57;20.50;;;14.63;;
59008;SDS011;44794;42.652;23.318;2022-10-16T06:48:24;28.13;;;14.82;;
59008;SDS011;44794;42.652;23.318;2022-10-16T06:50:57;18.00;;;12.70;;
59008;SDS011;44794;42.652;23.318;2022-10-16T06:53:44;22.35;;;13.00;;
59008;SDS011;44794;42.652;23.318;2022-10-16T06:56:15;19.38;;;12.27;;
59008;SDS011;44794;42.652;23.318;2022-10-16T06:58:42;21.02;;;12.93;;
59008;SDS011;44794;42.652;23.318;2022-10-16T07:01:09;19.27;;;12.18;;
59008;SDS011;44794;42.652;23.318;2022-10-16T07:03:37;19.20;;;11.65;;
59008;SDS011;44794;42.652;23.318;2022-10-16T07:06:04;18.10;;;11.25;;
59008;SDS011;44794;42.652;23.318;2022-10-16T07:08:31;19.95;;;11.63;;
59008;SDS011;44794;42.652;23.318;2022-10-16T07:11:01;16.77;;;12.50;;
59008;SDS011;44794;42.652;23.318;2022-10-16T07:13:38;15.05;;;10.13;;
59008;SDS011;44794;42.652;23.318;2022-10-16T07:16:10;15.15;;;10.35;;
59008;SDS011;44794;42.652;23.318;2022-10-16T07:18:37;13.93;;;10.20;;
59008;SDS011;44794;42.652;23.318;2022-10-16T07:21:12;13.93;;;10.40;;
59008;SDS011;44794;42.652;23.318;2022-10-16T07:23:39;13.82;;;10.13;;
59008;SDS011;44794;42.652;23.318;2022-10-16T07:26:05;14.63;;;10.05;;
59008;SDS011;44794;42.652;23.318;2022-10-16T07:28:31;16.70;;;10.35;;
59008;SDS011;44794;42.652;23.318;2022-10-16T07:31:04;16.50;;;9.45;;
59008;SDS011;44794;42.652;23.318;2022-10-16T07:33:32;13.32;;;9.65;;
59008;SDS011;44794;42.652;23.318;2022-10-16T07:35:58;14.23;;;9.85;;
59008;SDS011;44794;42.652;23.318;2022-10-16T07:38:24;15.15;;;10.40;;
59008;SDS011;44794;42.652;23.318;2022-10-16T07:40:55;12.95;;;9.85;;
59008;SDS011;44794;42.652;23.318;2022-10-16T07:43:25;14.38;;;10.40;;
59008;SDS011;44794;42.652;23.318;2022-10-16T07:45:51;12.57;;;10.55;;
59008;SDS011;44794;42.652;23.318;2022-10-16T07:48:17;17.92;;;11.05;;
59008;SDS011;44794;42.652;23.318;2022-10-16T07:50:43;15.85;;;11.70;;
59008;SDS011;44794;42.652;23.318;2022-10-16T07:53:09;17.45;;;12.63;;
59008;SDS011;44794;42.652;23.318;2022-10-16T07:55:35;18.33;;;13.43;;
59008;SDS011;44794;42.652;23.318;2022-10-16T07:58:00;21.35;;;14.07;;
59008;SDS011;44794;42.652;23.318;2022-10-16T08:00:26;22.67;;;14.25;;
59008;SDS011;44794;42.652;23.318;2022-10-16T08:02:51;24.13;;;14.50;;
59008;SDS011;44794;42.652;23.318;2022-10-16T08:05:17;26.13;;;14.45;;
59008;SDS011;44794;42.652;23.318;2022-10-16T08:07:42;22.90;;;14.18;;
59008;SDS011;44794;42.652;23.318;2022-10-16T08:10:17;21.08;;;14.05;;
59008;SDS011;44794;42.652;23.318;2022-10-16T08:12:44;17.88;;;12.55;;
59008;SDS011;44794;42.652;23.318;2022-10-16T08:15:10;22.60;;;13.35;;
59008;SDS011;44794;42.652;23.318;2022-10-16T08:17:36;19.92;;;13.18;;
59008;SDS011;44794;42.652;23.318;2022-10-16T08:20:02;18.85;;;12.95;;
59008;SDS011;44794;42.652;23.318;2022-10-16T08:22:28;17.10;;;12.80;;
59008;SDS011;44794;42.652;23.318;2022-10-16T08:24:53;18.15;;;12.30;;
59008;SDS011;44794;42.652;23.318;2022-10-16T08:27:19;19.15;;;12.38;;
59008;SDS011;44794;42.652;23.318;2022-10-16T08:29:44;20.27;;;12.30;;
59008;SDS011;44794;42.652;23.318;2022-10-16T08:32:10;18.50;;;12.07;;
59008;SDS011;44794;42.652;23.318;2022-10-16T08:34:35;18.42;;;11.57;;
59008;SDS011;44794;42.652;23.318;2022-10-16T08:37:00;17.60;;;11.35;;
59008;SDS011;44794;42.652;23.318;2022-10-16T08:39:27;17.50;;;11.18;;
59008;SDS011;44794;42.652;23.318;2022-10-16T08:46:59;14.10;;;10.00;;
59008;SDS011;44794;42.652;23.318;2022-10-16T08:49:37;13.82;;;8.80;;
59008;SDS011;44794;42.652;23.318;2022-10-16T08:52:10;15.50;;;8.57;;
59008;SDS011;44794;42.652;23.318;2022-10-16T08:54:37;12.32;;;8.15;;
59008;SDS011;44794;42.652;23.318;2022-10-16T08:57:19;14.32;;;8.00;;
59008;SDS011;44794;42.652;23.318;2022-10-16T08:59:46;12.55;;;8.48;;
59008;SDS011;44794;42.652;23.318;2022-10-16T09:02:34;8.25;;;6.75;;
59008;SDS011;44794;42.652;23.318;2022-10-16T09:13:09;10.52;;;6.30;;
59008;SDS011;44794;42.652;23.318;2022-10-16T09:16:07;9.13;;;5.43;;
59008;SDS011;44794;42.652;23.318;2022-10-16T09:18:48;7.70;;;5.32;;
59008;SDS011;44794;42.652;23.318;2022-10-16T09:21:26;8.88;;;5.70;;
59008;SDS011;44794;42.652;23.318;2022-10-16T09:23:57;13.63;;;5.30;;
59008;SDS011;44794;42.652;23.318;2022-10-16T09:26:25;10.25;;;5.18;;
59008;SDS011;44794;42.652;23.318;2022-10-16T09:28:54;6.57;;;5.43;;
59008;SDS011;44794;42.652;23.318;2022-10-16T09:31:20;8.52;;;5.75;;
59008;SDS011;44794;42.652;23.318;2022-10-16T09:33:52;7.45;;;5.07;;
59008;SDS011;44794;42.652;23.318;2022-10-16T09:36:20;8.75;;;4.80;;
59008;SDS011;44794;42.652;23.318;2022-10-16T09:38:48;8.35;;;5.18;;
59008;SDS011;44794;42.652;23.318;2022-10-16T09:41:16;8.25;;;5.13;;
59008;SDS011;44794;42.652;23.318;2022-10-16T09:43:52;7.32;;;5.18;;
59008;SDS011;44794;42.652;23.318;2022-10-16T09:49:03;8.90;;;5.38;;
59008;SDS011;44794;42.652;23.318;2022-10-16T09:51:32;7.93;;;5.43;;
59008;SDS011;44794;42.652;23.318;2022-10-16T09:54:21;6.77;;;5.10;;
59008;SDS011;44794;42.652;23.318;2022-10-16T09:56:46;9.27;;;4.60;;
59008;SDS011;44794;42.652;23.318;2022-10-16T10:01:51;9.30;;;5.50;;
59008;SDS011;44794;42.652;23.318;2022-10-16T10:04:21;7.65;;;5.00;;
59008;SDS011;44794;42.652;23.318;2022-10-16T10:06:52;8.52;;;5.53;;
59008;SDS011;44794;42.652;23.318;2022-10-16T10:09:24;10.98;;;5.07;;
59008;SDS011;44794;42.652;23.318;2022-10-16T10:12:06;7.47;;;5.22;;
59008;SDS011;44794;42.652;23.318;2022-10-16T10:14:52;9.85;;;5.38;;
59008;SDS011;44794;42.652;23.318;2022-10-16T10:17:22;8.57;;;5.15;;
59008;SDS011;44794;42.652;23.318;2022-10-16T10:22:46;7.63;;;4.68;;
59008;SDS011;44794;42.652;23.318;2022-10-16T10:25:14;8.13;;;4.95;;
59008;SDS011;44794;42.652;23.318;2022-10-16T10:41:05;6.97;;;4.68;;
59008;SDS011;44794;42.652;23.318;2022-10-16T10:46:35;6.82;;;4.90;;
59008;SDS011;44794;42.652;23.318;2022-10-16T10:49:09;7.70;;;4.80;;
59008;SDS011;44794;42.652;23.318;2022-10-16T10:54:52;7.47;;;5.10;;
59008;SDS011;44794;42.652;23.318;2022-10-16T10:57:30;7.78;;;4.65;;
59008;SDS011;44794;42.652;23.318;2022-10-16T11:05:58;8.30;;;4.72;;
59008;SDS011;44794;42.652;23.318;2022-10-16T11:08:36;7.68;;;4.63;;
59008;SDS011;44794;42.652;23.318;2022-10-16T11:11:14;13.05;;;4.40;;
59008;SDS011;44794;42.652;23.318;2022-10-16T11:16:34;9.80;;;4.70;;
59008;SDS011;44794;42.652;23.318;2022-10-16T11:19:13;5.80;;;3.75;;
59008;SDS011;44794;42.652;23.318;2022-10-16T11:21:47;6.30;;;3.42;;
59008;SDS011;44794;42.652;23.318;2022-10-16T11:24:23;4.80;;;3.63;;
59008;SDS011;44794;42.652;23.318;2022-10-16T11:27:12;6.07;;;3.20;;
59008;SDS011;44794;42.652;23.318;2022-10-16T11:30:04;4.38;;;3.10;;
59008;SDS011;44794;42.652;23.318;2022-10-16T11:35:25;2.90;;;2.60;;
59008;SDS011;44794;42.652;23.318;2022-10-16T11:38:18;7.15;;;2.92;;
59008;SDS011;44794;42.652;23.318;2022-10-16T11:40:48;5.38;;;3.10;;
59008;SDS011;44794;42.652;23.318;2022-10-16T11:43:22;6.18;;;2.72;;
59008;SDS011;44794;42.652;23.318;2022-10-16T11:45:54;3.90;;;3.33;;
59008;SDS011;44794;42.652;23.318;2022-10-16T11:48:25;6.13;;;3.65;;
59008;SDS011;44794;42.652;23.318;2022-10-16T11:51:17;4.35;;;3.08;;
59008;SDS011;44794;42.652;23.318;2022-10-16T11:56:23;5.80;;;3.08;;
59008;SDS011;44794;42.652;23.318;2022-10-16T12:01:31;4.68;;;3.47;;
59008;SDS011;44794;42.652;23.318;2022-10-16T12:04:14;4.50;;;3.30;;
59008;SDS011;44794;42.652;23.318;2022-10-16T12:06:52;5.57;;;3.58;;
59008;SDS011;44794;42.652;23.318;2022-10-16T12:09:39;5.85;;;3.55;;
59008;SDS011;44794;42.652;23.318;2022-10-16T12:12:23;5.85;;;3.10;;
59008;SDS011;44794;42.652;23.318;2022-10-16T12:14:59;6.13;;;3.05;;
59008;SDS011;44794;42.652;23.318;2022-10-16T12:17:34;6.15;;;3.58;;
59008;SDS011;44794;42.652;23.318;2022-10-16T12:20:23;5.07;;;3.60;;
59008;SDS011;44794;42.652;23.318;2022-10-16T12:25:53;5.57;;;3.90;;
59008;SDS011;44794;42.652;23.318;2022-10-16T12:28:26;5.55;;;3.70;;
59008;SDS011;44794;42.652;23.318;2022-10-16T12:31:00;4.85;;;3.70;;
59008;SDS011;44794;42.652;23.318;2022-10-16T12:33:30;5.63;;;3.42;;
59008;SDS011;44794;42.652;23.318;2022-10-16T12:35:59;4.47;;;2.50;;
59008;SDS011;44794;42.652;23.318;2022-10-16T12:38:32;3.85;;;2.92;;
59008;SDS011;44794;42.652;23.318;2022-10-16T12:46:04;3.97;;;2.55;;
59008;SDS011;44794;42.652;23.318;2022-10-16T12:48:46;4.18;;;2.85;;
59008;SDS011;44794;42.652;23.318;2022-10-16T13:02:57;5.15;;;3.35;;
59008;SDS011;44794;42.652;23.318;2022-10-16T13:11:25;3.65;;;3.20;;
59008;SDS011;44794;42.652;23.318;2022-10-16T13:28:01;4.75;;;2.95;;
59008;SDS011;44794;42.652;23.318;2022-10-16T13:30:31;5.78;;;3.67;;
59008;SDS011;44794;42.652;23.318;2022-10-16T13:33:04;4.65;;;2.97;;
59008;SDS011;44794;42.652;23.318;2022-10-16T13:35:34;6.40;;;3.38;;
59008;SDS011;44794;42.652;23.318;2022-10-16T13:38:13;4.63;;;3.10;;
59008;SDS011;44794;42.652;23.318;2022-10-16T13:43:37;5.22;;;3.30;;
59008;SDS011;44794;42.652;23.318;2022-10-16T13:46:10;5.20;;;3.10;;
59008;SDS011;44794;42.652;23.318;2022-10-16T13:48:38;8.60;;;3.83;;
59008;SDS011;44794;42.652;23.318;2022-10-16T13:51:25;5.82;;;3.38;;
59008;SDS011;44794;42.652;23.318;2022-10-16T13:53:50;7.05;;;3.40;;
59008;SDS011;44794;42.652;23.318;2022-10-16T13:56:18;6.68;;;3.28;;
59008;SDS011;44794;42.652;23.318;2022-10-16T13:58:46;5.68;;;3.47;;
59008;SDS011;44794;42.652;23.318;2022-10-16T14:04:04;3.67;;;3.13;;
59008;SDS011;44794;42.652;23.318;2022-10-16T14:06:32;5.40;;;3.25;;
59008;SDS011;44794;42.652;23.318;2022-10-16T14:09:12;7.07;;;3.33;;
59008;SDS011;44794;42.652;23.318;2022-10-16T14:11:45;7.22;;;3.72;;
59008;SDS011;44794;42.652;23.318;2022-10-16T14:14:14;5.00;;;3.75;;
59008;SDS011;44794;42.652;23.318;2022-10-16T14:16:41;7.15;;;4.00;;
59008;SDS011;44794;42.652;23.318;2022-10-16T14:19:25;6.15;;;3.63;;
59008;SDS011;44794;42.652;23.318;2022-10-16T14:21:53;6.40;;;3.90;;
59008;SDS011;44794;42.652;23.318;2022-10-16T14:24:37;6.13;;;4.07;;
59008;SDS011;44794;42.652;23.318;2022-10-16T14:27:20;8.48;;;3.83;;
59008;SDS011;44794;42.652;23.318;2022-10-16T14:30:01;6.13;;;3.63;;
59008;SDS011;44794;42.652;23.318;2022-10-16T14:32:37;3.95;;;3.40;;
59008;SDS011;44794;42.652;23.318;2022-10-16T14:35:21;5.40;;;2.95;;
59008;SDS011;44794;42.652;23.318;2022-10-16T14:37:55;5.30;;;3.53;;
59008;SDS011;44794;42.652;23.318;2022-10-16T14:40:23;5.30;;;3.30;;
59008;SDS011;44794;42.652;23.318;2022-10-16T14:42:52;6.38;;;3.30;;
59008;SDS011;44794;42.652;23.318;2022-10-16T14:45:19;5.32;;;3.45;;
59008;SDS011;44794;42.652;23.318;2022-10-16T14:47:48;4.72;;;3.30;;
59008;SDS011;44794;42.652;23.318;2022-10-16T14:50:17;9.27;;;3.78;;
59008;SDS011;44794;42.652;23.318;2022-10-16T14:52:42;5.53;;;3.47;;
59008;SDS011;44794;42.652;23.318;2022-10-16T14:55:09;7.95;;;3.17;;
59008;SDS011;44794;42.652;23.318;2022-10-16T14:57:34;4.85;;;3.30;;
59008;SDS011;44794;42.652;23.318;2022-10-16T15:00:04;5.07;;;3.75;;
59008;SDS011;44794;42.652;23.318;2022-10-16T15:02:43;4.72;;;3.88;;
59008;SDS011;44794;42.652;23.318;2022-10-16T15:07:40;8.68;;;3.47;;
59008;SDS011;44794;42.652;23.318;2022-10-16T15:10:06;8.15;;;3.60;;
59008;SDS011;44794;42.652;23.318;2022-10-16T15:12:31;12.82;;;4.03;;
59008;SDS011;44794;42.652;23.318;2022-10-16T15:14:57;6.47;;;3.80;;
59008;SDS011;44794;42.652;23.318;2022-10-16T15:17:22;6.90;;;4.00;;
59008;SDS011;44794;42.652;23.318;2022-10-16T15:19:48;11.75;;;4.30;;
59008;SDS011;44794;42.652;23.318;2022-10-16T15:22:13;7.78;;;3.95;;
59008;SDS011;44794;42.652;23.318;2022-10-16T15:24:39;8.55;;;4.35;;
59008;SDS011;44794;42.652;23.318;2022-10-16T15:27:04;6.18;;;3.95;;
59008;SDS011;44794;42.652;23.318;2022-10-16T15:29:30;7.60;;;4.22;;
59008;SDS011;44794;42.652;23.318;2022-10-16T15:31:56;6.45;;;4.35;;
59008;SDS011;44794;42.652;23.318;2022-10-16T15:34:21;7.25;;;4.07;;
59008;SDS011;44794;42.652;23.318;2022-10-16T15:36:47;5.78;;;3.95;;
59008;SDS011;44794;42.652;23.318;2022-10-16T15:39:16;6.63;;;4.18;;
59008;SDS011;44794;42.652;23.318;2022-10-16T15:41:44;10.07;;;4.70;;
59008;SDS011;44794;42.652;23.318;2022-10-16T15:44:15;9.60;;;4.32;;
59008;SDS011;44794;42.652;23.318;2022-10-16T15:46:41;13.23;;;4.57;;
59008;SDS011;44794;42.652;23.318;2022-10-16T15:49:07;12.07;;;5.00;;
59008;SDS011;44794;42.652;23.318;2022-10-16T15:51:35;14.20;;;4.80;;
59008;SDS011;44794;42.652;23.318;2022-10-16T15:54:03;11.57;;;5.32;;
59008;SDS011;44794;42.652;23.318;2022-10-16T15:56:29;13.02;;;5.90;;
59008;SDS011;44794;42.652;23.318;2022-10-16T15:58:55;10.98;;;6.47;;
59008;SDS011;44794;42.652;23.318;2022-10-16T16:01:22;15.20;;;6.00;;
59008;SDS011;44794;42.652;23.318;2022-10-16T16:03:47;10.93;;;6.10;;
59008;SDS011;44794;42.652;23.318;2022-10-16T16:06:18;15.77;;;6.10;;
59008;SDS011;44794;42.652;23.318;2022-10-16T16:08:44;12.85;;;6.93;;
59008;SDS011;44794;42.652;23.318;2022-10-16T16:11:10;13.77;;;7.75;;
59008;SDS011;44794;42.652;23.318;2022-10-16T16:13:37;16.30;;;7.15;;
59008;SDS011;44794;42.652;23.318;2022-10-16T16:16:13;13.77;;;7.30;;
59008;SDS011;44794;42.652;23.318;2022-10-16T16:18:40;12.18;;;7.55;;
59008;SDS011;44794;42.652;23.318;2022-10-16T16:21:07;22.00;;;8.00;;
59008;SDS011;44794;42.652;23.318;2022-10-16T16:23:34;17.05;;;9.05;;
59008;SDS011;44794;42.652;23.318;2022-10-16T16:26:45;13.00;;;8.45;;
59008;SDS011;44794;42.652;23.318;2022-10-16T16:28:51;18.15;;;9.63;;
59008;SDS011;44794;42.652;23.318;2022-10-16T16:31:17;20.17;;;9.32;;